sensor_id;sensor_type;location;lat;lon;timestamp;temperature;humidity
77613;DHT22;66777;52.282;5.960;2023-03-14T00:01:23;11.10;79.10
77613;DHT22;66777;52.282;5.960;2023-03-14T00:04:05;11.10;79.10
77613;DHT22;66777;52.282;5.960;2023-03-14T00:06:34;11.30;78.80
77613;DHT22;66777;52.282;5.960;2023-03-14T00:09:16;11.30;78.60
77613;DHT22;66777;52.282;5.960;2023-03-14T00:11:45;11.40;78.10
77613;DHT22;66777;52.282;5.960;2023-03-14T00:14:13;11.40;78.00
77613;DHT22;66777;52.282;5.960;2023-03-14T00:16:47;11.30;78.20
77613;DHT22;66777;52.282;5.960;2023-03-14T00:19:14;11.30;78.10
77613;DHT22;66777;52.282;5.960;2023-03-14T00:21:40;11.30;78.00
77613;DHT22;66777;52.282;5.960;2023-03-14T00:24:08;11.30;78.00
77613;DHT22;66777;52.282;5.960;2023-03-14T00:26:40;11.30;77.70
77613;DHT22;66777;52.282;5.960;2023-03-14T00:29:12;11.40;77.20
77613;DHT22;66777;52.282;5.960;2023-03-14T00:31:40;11.50;77.00
77613;DHT22;66777;52.282;5.960;2023-03-14T00:34:06;11.50;76.90
77613;DHT22;66777;52.282;5.960;2023-03-14T00:36:32;11.40;77.30
77613;DHT22;66777;52.282;5.960;2023-03-14T00:38:57;11.40;76.50
77613;DHT22;66777;52.282;5.960;2023-03-14T00:41:23;11.40;76.60
77613;DHT22;66777;52.282;5.960;2023-03-14T00:44:01;11.30;76.60
77613;DHT22;66777;52.282;5.960;2023-03-14T00:46:43;11.30;76.10
77613;DHT22;66777;52.282;5.960;2023-03-14T00:49:09;11.30;76.10
77613;DHT22;66777;52.282;5.960;2023-03-14T00:51:37;11.20;76.10
77613;DHT22;66777;52.282;5.960;2023-03-14T00:54:10;11.10;75.60
77613;DHT22;66777;52.282;5.960;2023-03-14T00:56:55;11.10;75.20
77613;DHT22;66777;52.282;5.960;2023-03-14T00:59:22;11.10;74.10
77613;DHT22;66777;52.282;5.960;2023-03-14T01:01:49;11.10;74.20
77613;DHT22;66777;52.282;5.960;2023-03-14T01:04:20;11.20;73.60
77613;DHT22;66777;52.282;5.960;2023-03-14T01:06:54;11.10;73.30
77613;DHT22;66777;52.282;5.960;2023-03-14T01:09:30;11.10;72.80
77613;DHT22;66777;52.282;5.960;2023-03-14T01:11:55;11.10;72.60
77613;DHT22;66777;52.282;5.960;2023-03-14T01:14:21;11.10;72.90
77613;DHT22;66777;52.282;5.960;2023-03-14T01:16:52;11.10;72.80
77613;DHT22;66777;52.282;5.960;2023-03-14T01:19:29;11.10;72.80
77613;DHT22;66777;52.282;5.960;2023-03-14T01:21:57;11.00;72.70
77613;DHT22;66777;52.282;5.960;2023-03-14T01:24:22;10.90;73.10
77613;DHT22;66777;52.282;5.960;2023-03-14T01:26:49;10.90;73.30
77613;DHT22;66777;52.282;5.960;2023-03-14T01:29:19;10.90;72.70
77613;DHT22;66777;52.282;5.960;2023-03-14T01:31:51;10.90;72.70
77613;DHT22;66777;52.282;5.960;2023-03-14T01:34:19;10.90;73.30
77613;DHT22;66777;52.282;5.960;2023-03-14T01:36:44;10.80;73.20
77613;DHT22;66777;52.282;5.960;2023-03-14T01:39:12;10.80;74.10
77613;DHT22;66777;52.282;5.960;2023-03-14T01:41:39;10.60;75.10
77613;DHT22;66777;52.282;5.960;2023-03-14T01:44:05;10.50;75.90
77613;DHT22;66777;52.282;5.960;2023-03-14T01:46:44;10.30;76.90
77613;DHT22;66777;52.282;5.960;2023-03-14T01:52:11;10.10;78.20
77613;DHT22;66777;52.282;5.960;2023-03-14T01:57:43;10.00;79.50
77613;DHT22;66777;52.282;5.960;2023-03-14T02:00:13;9.80;80.90
77613;DHT22;66777;52.282;5.960;2023-03-14T02:02:55;9.60;82.60
77613;DHT22;66777;52.282;5.960;2023-03-14T02:05:28;9.40;83.80
77613;DHT22;66777;52.282;5.960;2023-03-14T02:07:58;9.30;85.00
77613;DHT22;66777;52.282;5.960;2023-03-14T02:10:31;9.20;86.20
77613;DHT22;66777;52.282;5.960;2023-03-14T02:13:00;9.00;86.80
77613;DHT22;66777;52.282;5.960;2023-03-14T02:15:33;9.00;86.90
77613;DHT22;66777;52.282;5.960;2023-03-14T02:18:01;9.00;86.90
77613;DHT22;66777;52.282;5.960;2023-03-14T02:20:53;9.00;86.70
77613;DHT22;66777;52.282;5.960;2023-03-14T02:23:53;8.90;87.30
77613;DHT22;66777;52.282;5.960;2023-03-14T02:26:30;8.80;87.30
77613;DHT22;66777;52.282;5.960;2023-03-14T02:29:07;8.70;87.50
77613;DHT22;66777;52.282;5.960;2023-03-14T02:31:33;8.70;87.50
77613;DHT22;66777;52.282;5.960;2023-03-14T02:34:02;8.60;87.50
77613;DHT22;66777;52.282;5.960;2023-03-14T02:36:29;8.70;87.50
77613;DHT22;66777;52.282;5.960;2023-03-14T02:39:22;8.80;87.30
77613;DHT22;66777;52.282;5.960;2023-03-14T02:42:00;8.80;86.90
77613;DHT22;66777;52.282;5.960;2023-03-14T02:44:30;8.90;86.90
77613;DHT22;66777;52.282;5.960;2023-03-14T02:46:58;8.90;86.70
77613;DHT22;66777;52.282;5.960;2023-03-14T02:49:32;8.90;86.60
77613;DHT22;66777;52.282;5.960;2023-03-14T02:51:59;8.90;86.60
77613;DHT22;66777;52.282;5.960;2023-03-14T02:54:38;9.00;86.30
77613;DHT22;66777;52.282;5.960;2023-03-14T02:57:10;9.00;85.90
77613;DHT22;66777;52.282;5.960;2023-03-14T02:59:37;9.00;85.90
77613;DHT22;66777;52.282;5.960;2023-03-14T03:02:05;9.00;85.90
77613;DHT22;66777;52.282;5.960;2023-03-14T03:04:49;9.00;85.90
77613;DHT22;66777;52.282;5.960;2023-03-14T03:07:17;9.00;85.90
77613;DHT22;66777;52.282;5.960;2023-03-14T03:09:51;9.00;85.80
77613;DHT22;66777;52.282;5.960;2023-03-14T03:12:16;9.00;85.80
77613;DHT22;66777;52.282;5.960;2023-03-14T03:14:42;9.00;85.70
77613;DHT22;66777;52.282;5.960;2023-03-14T03:17:08;9.00;85.60
77613;DHT22;66777;52.282;5.960;2023-03-14T03:19:36;9.00;85.70
77613;DHT22;66777;52.282;5.960;2023-03-14T03:22:02;9.00;85.70
77613;DHT22;66777;52.282;5.960;2023-03-14T03:24:32;9.00;85.50
77613;DHT22;66777;52.282;5.960;2023-03-14T03:27:02;9.00;85.40
77613;DHT22;66777;52.282;5.960;2023-03-14T03:29:28;9.00;85.40
77613;DHT22;66777;52.282;5.960;2023-03-14T03:32:07;9.00;85.40
77613;DHT22;66777;52.282;5.960;2023-03-14T03:37:43;9.00;85.40
77613;DHT22;66777;52.282;5.960;2023-03-14T03:40:10;9.00;85.40
77613;DHT22;66777;52.282;5.960;2023-03-14T03:42:37;9.00;85.10
77613;DHT22;66777;52.282;5.960;2023-03-14T03:45:03;9.10;85.30
77613;DHT22;66777;52.282;5.960;2023-03-14T03:47:30;9.00;85.50
77613;DHT22;66777;52.282;5.960;2023-03-14T03:49:59;9.10;85.20
77613;DHT22;66777;52.282;5.960;2023-03-14T03:52:25;9.10;84.80
77613;DHT22;66777;52.282;5.960;2023-03-14T03:54:51;9.20;85.10
77613;DHT22;66777;52.282;5.960;2023-03-14T03:57:16;9.20;85.30
77613;DHT22;66777;52.282;5.960;2023-03-14T03:59:42;9.10;85.30
77613;DHT22;66777;52.282;5.960;2023-03-14T04:02:07;9.10;86.00
77613;DHT22;66777;52.282;5.960;2023-03-14T04:04:33;9.00;86.10
77613;DHT22;66777;52.282;5.960;2023-03-14T04:07:00;9.00;86.60
77613;DHT22;66777;52.282;5.960;2023-03-14T04:09:26;8.90;87.20
77613;DHT22;66777;52.282;5.960;2023-03-14T04:11:57;8.90;87.40
77613;DHT22;66777;52.282;5.960;2023-03-14T04:14:24;8.80;87.40
77613;DHT22;66777;52.282;5.960;2023-03-14T04:16:52;8.80;88.20
77613;DHT22;66777;52.282;5.960;2023-03-14T04:19:22;8.80;88.40
77613;DHT22;66777;52.282;5.960;2023-03-14T04:21:51;8.80;88.10
77613;DHT22;66777;52.282;5.960;2023-03-14T04:24:17;8.80;87.90
77613;DHT22;66777;52.282;5.960;2023-03-14T04:26:43;8.80;88.00
77613;DHT22;66777;52.282;5.960;2023-03-14T04:29:16;8.80;87.60
77613;DHT22;66777;52.282;5.960;2023-03-14T04:31:43;8.80;88.00
77613;DHT22;66777;52.282;5.960;2023-03-14T04:34:14;8.80;87.70
77613;DHT22;66777;52.282;5.960;2023-03-14T04:36:44;8.90;87.30
77613;DHT22;66777;52.282;5.960;2023-03-14T04:39:16;8.90;86.80
77613;DHT22;66777;52.282;5.960;2023-03-14T04:41:41;8.90;86.50
77613;DHT22;66777;52.282;5.960;2023-03-14T04:44:15;8.90;86.50
77613;DHT22;66777;52.282;5.960;2023-03-14T04:46:41;8.90;86.40
77613;DHT22;66777;52.282;5.960;2023-03-14T04:49:08;8.90;86.30
77613;DHT22;66777;52.282;5.960;2023-03-14T04:51:36;8.90;86.40
77613;DHT22;66777;52.282;5.960;2023-03-14T04:54:02;8.90;86.60
77613;DHT22;66777;52.282;5.960;2023-03-14T04:56:44;8.90;86.90
77613;DHT22;66777;52.282;5.960;2023-03-14T04:59:19;8.90;86.90
77613;DHT22;66777;52.282;5.960;2023-03-14T05:01:46;8.90;86.80
77613;DHT22;66777;52.282;5.960;2023-03-14T05:04:16;8.80;86.80
77613;DHT22;66777;52.282;5.960;2023-03-14T05:06:42;8.90;86.50
77613;DHT22;66777;52.282;5.960;2023-03-14T05:09:07;8.90;86.10
77613;DHT22;66777;52.282;5.960;2023-03-14T05:11:33;8.80;86.20
77613;DHT22;66777;52.282;5.960;2023-03-14T05:14:00;8.90;85.90
77613;DHT22;66777;52.282;5.960;2023-03-14T05:16:27;8.90;85.50
77613;DHT22;66777;52.282;5.960;2023-03-14T05:19:00;9.00;85.20
77613;DHT22;66777;52.282;5.960;2023-03-14T05:21:30;9.00;85.30
77613;DHT22;66777;52.282;5.960;2023-03-14T05:24:00;9.00;84.80
77613;DHT22;66777;52.282;5.960;2023-03-14T05:26:25;9.10;84.80
77613;DHT22;66777;52.282;5.960;2023-03-14T05:28:52;9.20;84.70
77613;DHT22;66777;52.282;5.960;2023-03-14T05:31:20;9.10;85.00
77613;DHT22;66777;52.282;5.960;2023-03-14T05:33:46;9.10;85.10
77613;DHT22;66777;52.282;5.960;2023-03-14T05:36:16;9.10;85.30
77613;DHT22;66777;52.282;5.960;2023-03-14T05:38:48;9.00;86.00
77613;DHT22;66777;52.282;5.960;2023-03-14T05:41:13;8.90;86.80
77613;DHT22;66777;52.282;5.960;2023-03-14T05:43:39;8.80;88.70
77613;DHT22;66777;52.282;5.960;2023-03-14T05:46:05;8.70;89.00
77613;DHT22;66777;52.282;5.960;2023-03-14T05:48:41;8.60;89.50
77613;DHT22;66777;52.282;5.960;2023-03-14T05:51:08;8.60;89.60
77613;DHT22;66777;52.282;5.960;2023-03-14T05:53:40;8.60;89.60
77613;DHT22;66777;52.282;5.960;2023-03-14T05:56:07;8.60;90.30
77613;DHT22;66777;52.282;5.960;2023-03-14T05:58:35;8.50;90.50
77613;DHT22;66777;52.282;5.960;2023-03-14T06:01:05;8.50;90.90
77613;DHT22;66777;52.282;5.960;2023-03-14T06:03:32;8.40;91.30
77613;DHT22;66777;52.282;5.960;2023-03-14T06:05:58;8.40;91.60
77613;DHT22;66777;52.282;5.960;2023-03-14T06:08:27;8.40;91.80
77613;DHT22;66777;52.282;5.960;2023-03-14T06:10:54;8.40;91.80
77613;DHT22;66777;52.282;5.960;2023-03-14T06:13:47;8.40;92.20
77613;DHT22;66777;52.282;5.960;2023-03-14T06:16:13;8.30;92.50
77613;DHT22;66777;52.282;5.960;2023-03-14T06:18:46;8.30;92.90
77613;DHT22;66777;52.282;5.960;2023-03-14T06:21:23;8.30;93.10
77613;DHT22;66777;52.282;5.960;2023-03-14T06:23:49;8.30;93.30
77613;DHT22;66777;52.282;5.960;2023-03-14T06:26:28;8.30;93.50
77613;DHT22;66777;52.282;5.960;2023-03-14T06:29:04;8.40;93.70
77613;DHT22;66777;52.282;5.960;2023-03-14T06:31:32;8.40;93.80
77613;DHT22;66777;52.282;5.960;2023-03-14T06:33:59;8.40;93.90
77613;DHT22;66777;52.282;5.960;2023-03-14T06:36:25;8.40;94.00
77613;DHT22;66777;52.282;5.960;2023-03-14T06:38:52;8.40;94.00
77613;DHT22;66777;52.282;5.960;2023-03-14T06:41:34;8.40;94.10
77613;DHT22;66777;52.282;5.960;2023-03-14T06:44:00;8.40;94.20
77613;DHT22;66777;52.282;5.960;2023-03-14T06:46:36;8.40;94.20
77613;DHT22;66777;52.282;5.960;2023-03-14T06:49:02;8.50;94.20
77613;DHT22;66777;52.282;5.960;2023-03-14T06:51:29;8.60;94.20
77613;DHT22;66777;52.282;5.960;2023-03-14T06:53:55;8.60;94.30
77613;DHT22;66777;52.282;5.960;2023-03-14T06:56:21;8.70;94.30
77613;DHT22;66777;52.282;5.960;2023-03-14T06:58:57;8.60;94.30
77613;DHT22;66777;52.282;5.960;2023-03-14T07:01:31;8.60;94.40
77613;DHT22;66777;52.282;5.960;2023-03-14T07:03:58;8.60;94.40
77613;DHT22;66777;52.282;5.960;2023-03-14T07:06:33;8.60;94.60
77613;DHT22;66777;52.282;5.960;2023-03-14T07:09:00;8.50;94.60
77613;DHT22;66777;52.282;5.960;2023-03-14T07:11:26;8.50;94.70
77613;DHT22;66777;52.282;5.960;2023-03-14T07:13:52;8.50;94.70
77613;DHT22;66777;52.282;5.960;2023-03-14T07:16:19;8.30;94.80
77613;DHT22;66777;52.282;5.960;2023-03-14T07:18:45;8.10;94.70
77613;DHT22;66777;52.282;5.960;2023-03-14T07:21:13;8.00;94.70
77613;DHT22;66777;52.282;5.960;2023-03-14T07:23:39;7.90;94.70
77613;DHT22;66777;52.282;5.960;2023-03-14T07:26:07;7.80;94.80
77613;DHT22;66777;52.282;5.960;2023-03-14T07:28:32;7.70;94.70
77613;DHT22;66777;52.282;5.960;2023-03-14T07:30:58;7.60;94.70
77613;DHT22;66777;52.282;5.960;2023-03-14T07:33:31;7.50;94.70
77613;DHT22;66777;52.282;5.960;2023-03-14T07:36:07;7.50;94.80
77613;DHT22;66777;52.282;5.960;2023-03-14T07:38:36;7.40;94.80
77613;DHT22;66777;52.282;5.960;2023-03-14T07:41:08;7.20;94.80
77613;DHT22;66777;52.282;5.960;2023-03-14T07:43:42;7.10;94.70
77613;DHT22;66777;52.282;5.960;2023-03-14T07:46:13;7.10;94.80
77613;DHT22;66777;52.282;5.960;2023-03-14T07:48:53;7.10;94.80
77613;DHT22;66777;52.282;5.960;2023-03-14T07:51:18;7.10;94.80
77613;DHT22;66777;52.282;5.960;2023-03-14T07:53:44;7.00;94.80
77613;DHT22;66777;52.282;5.960;2023-03-14T07:56:12;7.00;94.90
77613;DHT22;66777;52.282;5.960;2023-03-14T07:58:38;7.00;94.90
77613;DHT22;66777;52.282;5.960;2023-03-14T08:01:03;6.90;94.90
77613;DHT22;66777;52.282;5.960;2023-03-14T08:03:30;6.90;94.90
77613;DHT22;66777;52.282;5.960;2023-03-14T08:06:01;6.80;94.80
77613;DHT22;66777;52.282;5.960;2023-03-14T08:08:33;6.80;94.90
77613;DHT22;66777;52.282;5.960;2023-03-14T08:11:06;6.80;94.90
77613;DHT22;66777;52.282;5.960;2023-03-14T08:13:34;6.70;94.90
77613;DHT22;66777;52.282;5.960;2023-03-14T08:16:00;6.60;94.80
77613;DHT22;66777;52.282;5.960;2023-03-14T08:18:26;6.40;94.80
77613;DHT22;66777;52.282;5.960;2023-03-14T08:20:54;6.30;94.80
77613;DHT22;66777;52.282;5.960;2023-03-14T08:23:21;6.10;94.70
77613;DHT22;66777;52.282;5.960;2023-03-14T08:25:51;6.00;94.70
77613;DHT22;66777;52.282;5.960;2023-03-14T08:28:20;6.00;94.70
77613;DHT22;66777;52.282;5.960;2023-03-14T08:33:43;5.80;94.70
77613;DHT22;66777;52.282;5.960;2023-03-14T08:36:22;5.80;94.70
77613;DHT22;66777;52.282;5.960;2023-03-14T08:38:58;5.70;94.60
77613;DHT22;66777;52.282;5.960;2023-03-14T08:41:23;5.70;94.70
77613;DHT22;66777;52.282;5.960;2023-03-14T08:44:08;5.80;94.60
77613;DHT22;66777;52.282;5.960;2023-03-14T08:46:40;5.90;94.70
77613;DHT22;66777;52.282;5.960;2023-03-14T08:49:08;5.90;94.70
77613;DHT22;66777;52.282;5.960;2023-03-14T08:51:33;5.90;94.70
77613;DHT22;66777;52.282;5.960;2023-03-14T08:54:03;5.80;94.60
77613;DHT22;66777;52.282;5.960;2023-03-14T08:56:29;5.70;94.60
77613;DHT22;66777;52.282;5.960;2023-03-14T08:58:56;5.70;94.60
77613;DHT22;66777;52.282;5.960;2023-03-14T09:01:24;5.70;94.60
77613;DHT22;66777;52.282;5.960;2023-03-14T09:03:50;5.80;94.70
77613;DHT22;66777;52.282;5.960;2023-03-14T09:06:17;6.10;94.70
77613;DHT22;66777;52.282;5.960;2023-03-14T09:08:43;6.20;94.80
77613;DHT22;66777;52.282;5.960;2023-03-14T09:11:09;6.10;94.70
77613;DHT22;66777;52.282;5.960;2023-03-14T09:13:35;6.00;94.60
77613;DHT22;66777;52.282;5.960;2023-03-14T09:16:03;6.00;94.60
77613;DHT22;66777;52.282;5.960;2023-03-14T09:18:28;6.10;94.70
77613;DHT22;66777;52.282;5.960;2023-03-14T09:20:55;6.20;94.70
77613;DHT22;66777;52.282;5.960;2023-03-14T09:23:22;6.10;94.60
77613;DHT22;66777;52.282;5.960;2023-03-14T09:26:00;6.10;94.60
77613;DHT22;66777;52.282;5.960;2023-03-14T09:28:27;6.20;94.60
77613;DHT22;66777;52.282;5.960;2023-03-14T09:30:54;6.30;94.70
77613;DHT22;66777;52.282;5.960;2023-03-14T09:33:21;6.30;94.70
77613;DHT22;66777;52.282;5.960;2023-03-14T09:35:46;6.30;94.60
77613;DHT22;66777;52.282;5.960;2023-03-14T09:38:13;6.40;94.70
77613;DHT22;66777;52.282;5.960;2023-03-14T09:40:40;6.40;94.70
77613;DHT22;66777;52.282;5.960;2023-03-14T09:43:08;6.50;94.70
77613;DHT22;66777;52.282;5.960;2023-03-14T09:45:37;6.50;94.70
77613;DHT22;66777;52.282;5.960;2023-03-14T09:48:14;6.60;94.70
77613;DHT22;66777;52.282;5.960;2023-03-14T09:51:04;6.50;94.70
77613;DHT22;66777;52.282;5.960;2023-03-14T09:53:45;6.40;94.60
77613;DHT22;66777;52.282;5.960;2023-03-14T09:56:17;6.30;94.60
77613;DHT22;66777;52.282;5.960;2023-03-14T09:59:03;6.40;94.60
77613;DHT22;66777;52.282;5.960;2023-03-14T10:01:46;6.50;94.70
77613;DHT22;66777;52.282;5.960;2023-03-14T10:04:22;6.70;94.80
77613;DHT22;66777;52.282;5.960;2023-03-14T10:06:50;6.90;94.80
77613;DHT22;66777;52.282;5.960;2023-03-14T10:09:28;6.90;94.70
77613;DHT22;66777;52.282;5.960;2023-03-14T10:12:08;6.60;94.50
77613;DHT22;66777;52.282;5.960;2023-03-14T10:14:38;6.60;94.50
77613;DHT22;66777;52.282;5.960;2023-03-14T10:17:12;6.60;94.50
77613;DHT22;66777;52.282;5.960;2023-03-14T10:20:05;6.70;94.70
77613;DHT22;66777;52.282;5.960;2023-03-14T10:22:31;6.50;94.60
77613;DHT22;66777;52.282;5.960;2023-03-14T10:25:04;6.20;94.40
77613;DHT22;66777;52.282;5.960;2023-03-14T10:27:35;5.80;94.20
77613;DHT22;66777;52.282;5.960;2023-03-14T10:33:08;5.70;94.30
77613;DHT22;66777;52.282;5.960;2023-03-14T10:35:39;5.80;94.40
77613;DHT22;66777;52.282;5.960;2023-03-14T10:38:14;6.30;94.60
77613;DHT22;66777;52.282;5.960;2023-03-14T10:41:02;6.50;94.70
77613;DHT22;66777;52.282;5.960;2023-03-14T10:43:33;6.70;94.70
77613;DHT22;66777;52.282;5.960;2023-03-14T10:46:17;7.10;94.90
77613;DHT22;66777;52.282;5.960;2023-03-14T10:48:42;7.20;94.90
77613;DHT22;66777;52.282;5.960;2023-03-14T10:51:28;7.10;94.70
77613;DHT22;66777;52.282;5.960;2023-03-14T10:54:09;7.30;94.80
77613;DHT22;66777;52.282;5.960;2023-03-14T10:56:40;7.60;94.90
77613;DHT22;66777;52.282;5.960;2023-03-14T10:59:20;7.50;94.70
77613;DHT22;66777;52.282;5.960;2023-03-14T11:07:43;7.20;94.40
77613;DHT22;66777;52.282;5.960;2023-03-14T11:10:33;6.80;94.10
77613;DHT22;66777;52.282;5.960;2023-03-14T11:21:45;6.90;94.20
77613;DHT22;66777;52.282;5.960;2023-03-14T11:24:43;7.60;94.90
77613;DHT22;66777;52.282;5.960;2023-03-14T11:27:23;8.90;95.50
77613;DHT22;66777;52.282;5.960;2023-03-14T11:30:35;9.30;94.50
77613;DHT22;66777;52.282;5.960;2023-03-14T11:32:50;10.30;94.20
77613;DHT22;66777;52.282;5.960;2023-03-14T11:41:04;14.20;89.70
77613;DHT22;66777;52.282;5.960;2023-03-14T11:43:39;14.00;84.30
77613;DHT22;66777;52.282;5.960;2023-03-14T11:46:16;14.70;84.00
77613;DHT22;66777;52.282;5.960;2023-03-14T11:51:47;18.00;79.50
77613;DHT22;66777;52.282;5.960;2023-03-14T11:57:32;15.60;77.00
77613;DHT22;66777;52.282;5.960;2023-03-14T12:00:17;17.90;77.50
77613;DHT22;66777;52.282;5.960;2023-03-14T12:02:56;19.70;69.90
77613;DHT22;66777;52.282;5.960;2023-03-14T12:13:38;20.80;60.90
77613;DHT22;66777;52.282;5.960;2023-03-14T12:16:19;20.90;67.10
77613;DHT22;66777;52.282;5.960;2023-03-14T12:18:53;22.00;60.00
77613;DHT22;66777;52.282;5.960;2023-03-14T12:21:19;22.60;62.90
77613;DHT22;66777;52.282;5.960;2023-03-14T12:23:53;20.20;62.30
77613;DHT22;66777;52.282;5.960;2023-03-14T12:26:21;18.70;59.10
77613;DHT22;66777;52.282;5.960;2023-03-14T12:45:35;21.70;48.60
77613;DHT22;66777;52.282;5.960;2023-03-14T12:48:22;23.60;51.60
77613;DHT22;66777;52.282;5.960;2023-03-14T12:51:16;24.20;44.80
77613;DHT22;66777;52.282;5.960;2023-03-14T12:56:59;25.40;40.50
77613;DHT22;66777;52.282;5.960;2023-03-14T12:59:33;25.80;45.60
77613;DHT22;66777;52.282;5.960;2023-03-14T13:02:17;26.60;46.10
77613;DHT22;66777;52.282;5.960;2023-03-14T13:10:45;27.50;41.20
77613;DHT22;66777;52.282;5.960;2023-03-14T13:13:21;26.30;42.30
77613;DHT22;66777;52.282;5.960;2023-03-14T13:15:49;25.00;40.90
77613;DHT22;66777;52.282;5.960;2023-03-14T13:18:29;20.50;54.20
77613;DHT22;66777;52.282;5.960;2023-03-14T13:24:07;21.50;45.10
77613;DHT22;66777;52.282;5.960;2023-03-14T13:27:08;20.80;45.50
77613;DHT22;66777;52.282;5.960;2023-03-14T13:29:41;19.50;48.10
77613;DHT22;66777;52.282;5.960;2023-03-14T13:32:21;20.60;46.70
77613;DHT22;66777;52.282;5.960;2023-03-14T13:34:47;23.20;42.40
77613;DHT22;66777;52.282;5.960;2023-03-14T13:37:17;25.00;44.30
77613;DHT22;66777;52.282;5.960;2023-03-14T13:40:02;26.00;39.60
77613;DHT22;66777;52.282;5.960;2023-03-14T13:42:29;24.80;38.30
77613;DHT22;66777;52.282;5.960;2023-03-14T13:44:56;24.20;45.20
77613;DHT22;66777;52.282;5.960;2023-03-14T13:47:38;23.50;46.10
77613;DHT22;66777;52.282;5.960;2023-03-14T13:50:20;23.70;37.20
77613;DHT22;66777;52.282;5.960;2023-03-14T13:52:45;24.40;37.70
77613;DHT22;66777;52.282;5.960;2023-03-14T13:55:30;24.90;39.30
77613;DHT22;66777;52.282;5.960;2023-03-14T13:57:58;23.20;35.80
77613;DHT22;66777;52.282;5.960;2023-03-14T14:00:29;21.70;43.30
77613;DHT22;66777;52.282;5.960;2023-03-14T14:03:04;19.40;40.90
77613;DHT22;66777;52.282;5.960;2023-03-14T14:05:49;18.10;43.20
77613;DHT22;66777;52.282;5.960;2023-03-14T14:08:16;18.20;41.40
77613;DHT22;66777;52.282;5.960;2023-03-14T14:10:43;16.50;45.00
77613;DHT22;66777;52.282;5.960;2023-03-14T14:13:15;15.50;46.00
77613;DHT22;66777;52.282;5.960;2023-03-14T14:15:46;14.50;45.30
77613;DHT22;66777;52.282;5.960;2023-03-14T14:18:18;13.30;48.50
77613;DHT22;66777;52.282;5.960;2023-03-14T14:20:47;12.80;47.50
77613;DHT22;66777;52.282;5.960;2023-03-14T14:25:40;13.60;47.30
77613;DHT22;66777;52.282;5.960;2023-03-14T14:28:31;14.60;48.80
77613;DHT22;66777;52.282;5.960;2023-03-14T14:31:18;14.90;43.90
77613;DHT22;66777;52.282;5.960;2023-03-14T14:39:05;14.50;47.10
77613;DHT22;66777;52.282;5.960;2023-03-14T14:41:39;13.90;47.50
77613;DHT22;66777;52.282;5.960;2023-03-14T14:44:05;12.60;48.80
77613;DHT22;66777;52.282;5.960;2023-03-14T14:46:36;11.40;51.00
77613;DHT22;66777;52.282;5.960;2023-03-14T14:49:06;10.60;50.90
77613;DHT22;66777;52.282;5.960;2023-03-14T14:52:13;10.10;51.80
77613;DHT22;66777;52.282;5.960;2023-03-14T14:54:53;9.80;52.90
77613;DHT22;66777;52.282;5.960;2023-03-14T14:57:26;10.30;53.00
77613;DHT22;66777;52.282;5.960;2023-03-14T15:00:02;10.50;53.40
77613;DHT22;66777;52.282;5.960;2023-03-14T15:02:40;10.00;51.40
77613;DHT22;66777;52.282;5.960;2023-03-14T15:05:22;9.20;54.80
77613;DHT22;66777;52.282;5.960;2023-03-14T15:07:48;9.00;56.30
77613;DHT22;66777;52.282;5.960;2023-03-14T15:10:30;8.60;55.20
77613;DHT22;66777;52.282;5.960;2023-03-14T15:12:55;8.20;52.90
77613;DHT22;66777;52.282;5.960;2023-03-14T15:15:43;8.00;55.90
77613;DHT22;66777;52.282;5.960;2023-03-14T15:18:28;8.00;53.90
77613;DHT22;66777;52.282;5.960;2023-03-14T15:20:55;8.10;54.80
77613;DHT22;66777;52.282;5.960;2023-03-14T15:23:22;8.10;57.30
77613;DHT22;66777;52.282;5.960;2023-03-14T15:25:48;8.20;56.20
77613;DHT22;66777;52.282;5.960;2023-03-14T15:28:17;8.20;56.70
77613;DHT22;66777;52.282;5.960;2023-03-14T15:30:48;8.50;58.20
77613;DHT22;66777;52.282;5.960;2023-03-14T15:33:17;8.40;57.80
77613;DHT22;66777;52.282;5.960;2023-03-14T15:35:47;8.20;58.00
77613;DHT22;66777;52.282;5.960;2023-03-14T15:38:15;8.00;58.70
77613;DHT22;66777;52.282;5.960;2023-03-14T15:40:41;7.80;58.60
77613;DHT22;66777;52.282;5.960;2023-03-14T15:43:09;8.00;58.30
77613;DHT22;66777;52.282;5.960;2023-03-14T15:45:35;8.20;56.50
77613;DHT22;66777;52.282;5.960;2023-03-14T15:48:06;8.60;55.90
77613;DHT22;66777;52.282;5.960;2023-03-14T15:50:32;8.80;55.40
77613;DHT22;66777;52.282;5.960;2023-03-14T15:53:00;9.00;53.90
77613;DHT22;66777;52.282;5.960;2023-03-14T15:55:26;8.90;53.50
77613;DHT22;66777;52.282;5.960;2023-03-14T15:57:52;8.70;53.20
77613;DHT22;66777;52.282;5.960;2023-03-14T16:00:19;8.40;54.30
77613;DHT22;66777;52.282;5.960;2023-03-14T16:02:59;8.10;55.70
77613;DHT22;66777;52.282;5.960;2023-03-14T16:05:26;7.80;52.80
77613;DHT22;66777;52.282;5.960;2023-03-14T16:07:56;7.60;55.90
77613;DHT22;66777;52.282;5.960;2023-03-14T16:10:23;7.30;55.80
77613;DHT22;66777;52.282;5.960;2023-03-14T16:12:49;7.20;55.40
77613;DHT22;66777;52.282;5.960;2023-03-14T16:15:15;7.40;56.80
77613;DHT22;66777;52.282;5.960;2023-03-14T16:17:40;7.50;55.80
77613;DHT22;66777;52.282;5.960;2023-03-14T16:20:17;7.50;57.70
77613;DHT22;66777;52.282;5.960;2023-03-14T16:22:55;7.30;56.60
77613;DHT22;66777;52.282;5.960;2023-03-14T16:25:26;7.00;57.00
77613;DHT22;66777;52.282;5.960;2023-03-14T16:27:55;6.90;57.60
77613;DHT22;66777;52.282;5.960;2023-03-14T16:30:22;6.80;58.50
77613;DHT22;66777;52.282;5.960;2023-03-14T16:32:48;6.80;58.60
77613;DHT22;66777;52.282;5.960;2023-03-14T16:35:14;6.70;59.40
77613;DHT22;66777;52.282;5.960;2023-03-14T16:37:53;6.70;59.00
77613;DHT22;66777;52.282;5.960;2023-03-14T16:40:20;6.60;58.70
77613;DHT22;66777;52.282;5.960;2023-03-14T16:42:49;6.60;58.30
77613;DHT22;66777;52.282;5.960;2023-03-14T16:45:17;6.50;59.30
77613;DHT22;66777;52.282;5.960;2023-03-14T16:47:44;6.50;59.30
77613;DHT22;66777;52.282;5.960;2023-03-14T16:50:10;6.30;59.50
77613;DHT22;66777;52.282;5.960;2023-03-14T16:52:38;6.30;59.70
77613;DHT22;66777;52.282;5.960;2023-03-14T16:55:03;6.20;60.80
77613;DHT22;66777;52.282;5.960;2023-03-14T16:57:34;6.10;58.30
77613;DHT22;66777;52.282;5.960;2023-03-14T17:00:05;6.00;59.00
77613;DHT22;66777;52.282;5.960;2023-03-14T17:02:32;5.90;57.80
77613;DHT22;66777;52.282;5.960;2023-03-14T17:04:58;5.80;59.40
77613;DHT22;66777;52.282;5.960;2023-03-14T17:07:25;5.70;59.10
77613;DHT22;66777;52.282;5.960;2023-03-14T17:10:18;5.60;59.40
77613;DHT22;66777;52.282;5.960;2023-03-14T17:12:44;5.50;60.50
77613;DHT22;66777;52.282;5.960;2023-03-14T17:15:10;5.50;59.70
77613;DHT22;66777;52.282;5.960;2023-03-14T17:17:37;5.50;60.00
77613;DHT22;66777;52.282;5.960;2023-03-14T17:20:06;5.50;61.00
77613;DHT22;66777;52.282;5.960;2023-03-14T17:25:41;5.30;60.50
77613;DHT22;66777;52.282;5.960;2023-03-14T17:28:12;5.30;60.60
77613;DHT22;66777;52.282;5.960;2023-03-14T17:30:39;5.30;61.20
77613;DHT22;66777;52.282;5.960;2023-03-14T17:33:05;5.30;60.80
77613;DHT22;66777;52.282;5.960;2023-03-14T17:35:36;5.20;61.00
77613;DHT22;66777;52.282;5.960;2023-03-14T17:38:03;5.10;61.30